Terminal Aerodrome Forecast
Issued by NWS Bismarck, ND

Home | Current Version | Previous Version | Text Only | Print | Product List | Glossary Off
Versions: 1 2 3 4 5 6 7 8 9 10 11 12 13 14 15 16 17 18 19 20

000
FTUS43 KBIS 231500 AAA
TAFISN
TAF AMD
KISN 231523Z 2315/2412 33012KT P6SM SCT015 BKN025
      TEMPO 2315/2316 P6SM -SN OVC015
     FM231600 32008KT P6SM OVC025
     FM232100 27006KT P6SM OVC015
     FM240300 22005KT P6SM SCT015 BKN070 OVC250=

USA.gov is the U.S. government's official web portal to all federal, state and local government web resources and services.